Antelope, Texas
Current Conditions -  °F | °C
As of 1:30 PM on Friday 31 Oct 2014 (Local Time) from KRPH Reporting Station
Clear Clear  
Wind Chill: 63°   Ceiling: Unl
Heat Index: 63°   Visibility: 10mi
Dew Point: 41°   Wind: 10mph
Humidity: 44%   Direction: 20°NNE
Pressure: 30.36"   Gusts: 18mph
Location:  33.4259°N, 98.383°W
Report Text: KRPH 311830Z AUTO 02009G16KT 10SM CLR 17/05 A3036 RMK AO2 T01730050
Loading
Personal Weather Stations






























Interactive Weather Map
Tropical Storm Tracking
New forecast layout! Learn more

10-Day Weather Forecast

Advertisements
Track Severe Weather on mobile